createdAt,value
2019-02-08T00:00:10.799Z,100080.72
2019-02-08T00:06:22.492Z,100079.19
2019-02-08T00:09:28.299Z,100083.23
2019-02-08T00:12:34.300Z,100088.29
2019-02-08T00:15:40.167Z,100081.27
2019-02-08T00:18:46.061Z,100082.56
2019-02-08T00:21:51.817Z,100075.13
2019-02-08T00:24:57.568Z,100076.45
2019-02-08T00:28:03.747Z,100070.83
2019-02-08T00:31:09.623Z,100068.41
2019-02-08T00:34:15.379Z,100069.77
2019-02-08T00:37:21.172Z,100065.40
2019-02-08T00:40:27.411Z,100073.54
2019-02-08T00:43:35.050Z,100073.63
2019-02-08T00:46:40.946Z,100072.13
2019-02-08T00:49:46.715Z,100066.48
2019-02-08T00:52:53.272Z,100067.18
2019-02-08T00:55:59.244Z,100071.83
2019-02-08T00:59:05.512Z,100065.20
2019-02-08T01:02:11.362Z,100057.28
2019-02-08T01:05:18.186Z,100054.44
2019-02-08T01:08:24.518Z,100047.70
2019-02-08T01:11:30.436Z,100045.28
2019-02-08T01:14:36.315Z,100045.50
2019-02-08T01:17:42.187Z,100038.86
2019-02-08T01:20:47.968Z,100036.64
2019-02-08T01:23:53.733Z,100034.60
2019-02-08T01:26:59.612Z,100030.64
2019-02-08T01:30:08.106Z,100034.94
2019-02-08T01:33:14.058Z,100026.50
2019-02-08T01:36:19.915Z,100032.96
2019-02-08T01:39:25.681Z,100024.25
2019-02-08T01:42:31.480Z,100030.19
2019-02-08T01:45:37.570Z,100022.69
2019-02-08T01:48:43.466Z,100030.73
2019-02-08T01:51:49.227Z,100027.26
2019-02-08T01:54:54.992Z,100027.75
2019-02-08T01:58:00.882Z,100026.59
2019-02-08T02:01:08.424Z,100024.63
2019-02-08T02:04:14.413Z,100025.16
2019-02-08T02:07:20.375Z,100019.59
2019-02-08T02:10:34.539Z,100022.18
2019-02-08T02:13:40.345Z,100020.44
2019-02-08T02:16:46.098Z,100017.10
2019-02-08T02:19:51.927Z,100016.19
2019-02-08T02:22:57.917Z,100019.74
2019-02-08T02:26:03.693Z,100017.66
2019-02-08T02:29:09.461Z,100015.08
2019-02-08T02:32:15.209Z,100016.11
2019-02-08T02:35:21.181Z,100017.04
2019-02-08T02:38:26.925Z,100021.08
2019-02-08T02:41:32.770Z,100019.59
2019-02-08T02:44:38.559Z,100019.26
2019-02-08T02:47:44.416Z,100020.56
2019-02-08T02:50:50.270Z,100022.82
2019-02-08T02:54:04.468Z,100027.02
2019-02-08T02:57:04.593Z,100028.83
2019-02-08T03:00:14.619Z,100026.72
2019-02-08T03:03:20.498Z,100029.69
2019-02-08T03:06:26.354Z,100030.41
2019-02-08T03:09:32.113Z,100029.02
2019-02-08T03:12:37.898Z,100028.33
2019-02-08T03:15:43.901Z,100034.02
2019-02-08T03:18:49.662Z,100030.03
2019-02-08T03:21:55.419Z,100028.41
2019-02-08T03:25:01.185Z,100036.32
2019-02-08T03:28:07.132Z,100031.88
2019-02-08T03:31:12.921Z,100028.24
2019-02-08T03:34:18.762Z,100029.77
2019-02-08T03:37:24.518Z,100031.12
2019-02-08T03:40:30.492Z,100022.22
2019-02-08T03:43:36.235Z,100035.59
2019-02-08T03:46:42.195Z,100036.20
2019-02-08T03:49:48.046Z,100033.27
2019-02-08T03:52:54.020Z,100037.78
2019-02-08T03:55:59.854Z,100041.99
2019-02-08T03:59:06.213Z,100034.54
2019-02-08T04:02:11.979Z,100034.73
2019-02-08T04:05:17.925Z,100036.48
2019-02-08T04:08:23.683Z,100032.72
2019-02-08T04:11:29.611Z,100030.25
2019-02-08T04:14:35.589Z,100023.48
2019-02-08T04:17:41.606Z,100030.25
2019-02-08T04:20:47.384Z,100020.83
2019-02-08T04:23:53.246Z,100018.09
2019-02-08T04:26:59.022Z,100023.42
2019-02-08T04:30:06.687Z,100015.34
2019-02-08T04:33:12.631Z,100014.45
2019-02-08T04:36:18.374Z,100018.43
2019-02-08T04:39:24.151Z,100012.68
2019-02-08T04:42:29.888Z,100014.48
2019-02-08T04:45:35.847Z,100014.45
2019-02-08T04:48:41.664Z,100010.50
2019-02-08T04:51:47.492Z,100009.39
2019-02-08T04:54:53.249Z,100009.27
2019-02-08T04:57:59.014Z,100011.42
2019-02-08T05:01:05.007Z,100014.64
2019-02-08T05:04:10.865Z,100009.50
2019-02-08T05:07:16.624Z,100009.54
2019-02-08T05:10:25.294Z,100007.56
2019-02-08T05:13:31.046Z,100008.65
2019-02-08T05:16:36.792Z,100011.91
2019-02-08T05:19:42.592Z,100010.52
2019-02-08T05:22:48.578Z,100012.59
2019-02-08T05:25:54.350Z,100019.63
2019-02-08T05:29:00.124Z,100021.05
2019-02-08T05:32:06.533Z,100029.69
2019-02-08T05:35:12.708Z,100027.37
2019-02-08T05:38:18.565Z,100025.42
2019-02-08T05:41:24.467Z,100022.45
2019-02-08T05:44:30.352Z,100026.05
2019-02-08T05:47:36.244Z,100029.88
2019-02-08T05:50:42.253Z,100026.86
2019-02-08T05:53:48.009Z,100032.65
2019-02-08T05:56:53.824Z,100036.02
2019-02-08T05:59:59.581Z,100041.00
2019-02-08T06:03:06.394Z,100033.66
2019-02-08T06:06:12.359Z,100045.62
2019-02-08T06:09:18.335Z,100046.70
2019-02-08T06:12:24.098Z,100048.03
2019-02-08T06:15:30.079Z,100052.13
2019-02-08T06:18:35.851Z,100052.77
2019-02-08T06:21:41.598Z,100055.41
2019-02-08T06:24:47.364Z,100057.74
2019-02-08T06:27:53.362Z,100047.37
2019-02-08T06:30:59.162Z,100048.97
2019-02-08T06:34:05.092Z,100057.00
2019-02-08T06:37:10.891Z,100062.55
2019-02-08T06:40:19.179Z,100060.58
2019-02-08T06:43:24.934Z,100068.42
2019-02-08T06:46:30.714Z,100058.14
2019-02-08T06:49:36.475Z,100063.67
2019-02-08T06:52:42.487Z,100062.64
2019-02-08T06:55:48.268Z,100067.78
2019-02-08T06:59:02.281Z,100061.94
2019-02-08T07:02:22.812Z,100067.08
2019-02-08T07:06:00.656Z,100062.38
2019-02-08T07:09:29.238Z,100054.98
2019-02-08T07:12:56.866Z,100065.88
2019-02-08T07:16:24.714Z,100068.55
2019-02-08T07:19:48.355Z,100069.89
2019-02-08T07:23:12.807Z,100068.34
2019-02-08T07:26:42.833Z,100065.01
2019-02-08T07:30:16.643Z,100057.65
2019-02-08T07:33:44.020Z,100059.41
2019-02-08T07:37:09.338Z,100068.52
2019-02-08T07:40:50.474Z,100063.70
2019-02-08T07:44:14.095Z,100066.70
2019-02-08T07:47:28.863Z,100070.53
2019-02-08T07:50:39.627Z,100072.83
2019-02-08T07:53:58.703Z,100071.32
2019-02-08T07:57:22.549Z,100067.24
2019-02-08T08:00:51.609Z,100068.72
2019-02-08T08:04:02.605Z,100060.18
2019-02-08T08:07:26.215Z,100066.17
2019-02-08T08:10:44.992Z,100068.26
2019-02-08T08:14:08.739Z,100071.88
2019-02-08T08:17:32.379Z,100066.69
2019-02-08T08:20:56.087Z,100069.10
2019-02-08T08:24:16.181Z,100080.23
2019-02-08T08:27:34.266Z,100076.44
2019-02-08T08:31:05.522Z,100082.67
2019-02-08T08:34:18.607Z,100079.38
2019-02-08T08:37:58.016Z,100074.32
2019-02-08T08:41:44.249Z,100073.16
2019-02-08T08:45:27.842Z,100077.39
2019-02-08T08:49:20.341Z,100076.84
2019-02-08T08:53:19.107Z,100087.61
2019-02-08T08:56:43.430Z,100087.98
2019-02-08T09:00:44.278Z,100093.88
2019-02-08T09:04:24.833Z,100089.22
2019-02-08T09:08:06.887Z,100093.98
2019-02-08T09:12:12.767Z,100090.61
2019-02-08T09:16:04.460Z,100099.08
2019-02-08T09:20:00.202Z,100096.77
2019-02-08T09:23:46.700Z,100098.05
2019-02-08T09:27:35.092Z,100102.64
2019-02-08T09:31:20.857Z,100104.38
2019-02-08T09:35:06.184Z,100100.46
2019-02-08T09:38:50.771Z,100097.27
2019-02-08T09:42:40.175Z,100104.06
2019-02-08T09:46:38.471Z,100104.50
2019-02-08T09:50:20.925Z,100101.75
2019-02-08T09:54:08.654Z,100098.41
2019-02-08T09:57:51.190Z,100097.47
2019-02-08T10:01:32.536Z,100089.18
2019-02-08T10:05:16.150Z,100092.75
2019-02-08T10:09:20.888Z,100093.10
2019-02-08T10:13:13.449Z,100085.19
2019-02-08T10:17:00.273Z,100084.78
2019-02-08T10:20:55.095Z,100082.17
2019-02-08T10:24:36.429Z,100083.37
2019-02-08T10:28:17.790Z,100074.58
2019-02-08T10:32:17.522Z,100084.27
2019-02-08T10:36:28.825Z,100078.25
2019-02-08T10:40:17.915Z,100065.08
2019-02-08T10:44:22.690Z,100063.15
2019-02-08T10:48:15.168Z,100065.39
2019-02-08T10:52:04.289Z,100061.48
2019-02-08T10:55:48.928Z,100064.13
2019-02-08T10:59:34.685Z,100059.28
2019-02-08T11:03:41.482Z,100057.49
2019-02-08T11:07:27.673Z,100051.58
2019-02-08T11:11:11.586Z,100048.75
2019-02-08T11:14:55.354Z,100041.89
2019-02-08T11:18:38.338Z,100035.80
2019-02-08T11:21:44.273Z,100029.83
2019-02-08T11:24:50.237Z,100032.56
2019-02-08T11:27:56.261Z,100024.45
2019-02-08T11:31:02.086Z,100021.98
2019-02-08T11:34:08.323Z,100023.47
2019-02-08T11:37:14.545Z,100023.00
2019-02-08T11:40:25.332Z,100026.09
2019-02-08T11:43:31.537Z,100027.70
2019-02-08T11:46:37.652Z,100024.91
2019-02-08T11:49:43.533Z,100019.75
2019-02-08T11:52:49.350Z,100021.20
2019-02-08T11:55:55.217Z,100018.36
2019-02-08T11:59:00.999Z,100017.07
2019-02-08T12:02:07.169Z,100015.98
2019-02-08T12:05:13.784Z,100014.67
2019-02-08T12:08:19.675Z,100003.77
2019-02-08T12:11:25.449Z,100009.66
2019-02-08T12:14:31.450Z,100007.75
2019-02-08T12:17:37.236Z,100005.52
2019-02-08T12:20:43.127Z,99998.49
2019-02-08T12:23:49.008Z,99993.52
2019-02-08T12:26:54.778Z,100001.47
2019-02-08T12:30:00.555Z,99994.19
2019-02-08T12:33:06.911Z,99995.02
2019-02-08T12:36:12.875Z,99991.76
2019-02-08T12:39:18.761Z,99991.77
2019-02-08T12:42:24.542Z,99989.14
2019-02-08T12:45:31.620Z,99987.80
2019-02-08T12:48:37.396Z,99979.28
2019-02-08T12:51:43.250Z,99988.84
2019-02-08T12:54:49.024Z,99980.61
2019-02-08T12:57:54.781Z,99979.84
2019-02-08T13:01:00.759Z,99981.61
2019-02-08T13:04:07.950Z,99984.61
2019-02-08T13:07:13.825Z,99986.72
2019-02-08T13:10:22.012Z,99983.23
2019-02-08T13:13:27.846Z,99982.89
2019-02-08T13:16:33.607Z,99987.75
2019-02-08T13:19:39.405Z,99986.63
2019-02-08T13:22:45.328Z,99984.52
2019-02-08T13:25:51.243Z,99991.45
2019-02-08T13:28:57.026Z,99988.11
2019-02-08T13:32:02.917Z,99984.50
2019-02-08T13:35:09.030Z,99988.03
2019-02-08T13:38:14.854Z,99990.61
2019-02-08T13:41:20.635Z,99989.69
2019-02-08T13:44:26.632Z,99988.09
2019-02-08T13:47:32.531Z,99985.47
2019-02-08T13:50:38.429Z,99990.55
2019-02-08T13:53:44.231Z,99981.92
2019-02-08T13:56:50.014Z,99982.80
2019-02-08T13:59:55.817Z,99977.80
2019-02-08T14:03:01.864Z,99974.80
2019-02-08T14:06:08.187Z,99973.71
2019-02-08T14:09:14.193Z,99970.94
2019-02-08T14:12:19.968Z,99980.47
2019-02-08T14:15:26.459Z,99979.84
2019-02-08T14:18:32.244Z,99978.95
2019-02-08T14:21:38.023Z,99975.69
2019-02-08T14:24:44.155Z,99969.98
2019-02-08T14:27:50.613Z,99977.19
2019-02-08T14:30:56.480Z,99982.33
2019-02-08T14:34:02.253Z,99976.56
2019-02-08T14:37:08.307Z,99972.51
2019-02-08T14:40:17.297Z,99979.73
2019-02-08T14:43:23.089Z,99981.83
2019-02-08T14:46:28.836Z,99980.02
2019-02-08T14:49:34.721Z,99981.05
2019-02-08T14:52:40.592Z,99976.61
2019-02-08T14:55:46.455Z,99977.45
2019-02-08T14:58:52.304Z,99981.68
2019-02-08T15:01:58.156Z,99979.40
2019-02-08T15:05:04.918Z,99982.22
2019-02-08T15:08:10.715Z,99979.98
2019-02-08T15:11:16.530Z,99982.59
2019-02-08T15:14:22.303Z,99985.77
2019-02-08T15:17:28.123Z,99989.16
2019-02-08T15:20:34.126Z,99982.80
2019-02-08T15:23:40.008Z,99988.52
2019-02-08T15:26:45.741Z,99987.86
2019-02-08T15:29:51.530Z,99988.53
2019-02-08T15:32:57.308Z,99992.35
2019-02-08T15:36:03.191Z,99991.02
2019-02-08T15:39:12.140Z,99992.08
2019-02-08T15:42:18.024Z,99990.42
2019-02-08T15:45:23.957Z,99995.63
2019-02-08T15:48:29.823Z,99993.73
2019-02-08T15:51:35.841Z,99995.08
2019-02-08T15:54:42.609Z,99999.20
2019-02-08T15:57:48.447Z,99998.76
2019-02-08T16:00:54.427Z,99996.97
2019-02-08T16:04:00.210Z,99999.70
2019-02-08T16:07:06.224Z,100008.20
2019-02-08T16:10:12.412Z,100007.38
2019-02-08T16:13:18.266Z,100004.98
2019-02-08T16:16:25.549Z,100014.67
2019-02-08T16:19:31.656Z,100019.75
2019-02-08T16:22:37.680Z,100018.83
2019-02-08T16:25:43.550Z,100022.97
2019-02-08T16:28:49.362Z,100029.36
2019-02-08T16:31:55.139Z,100026.40
2019-02-08T16:35:01.044Z,100033.59
2019-02-08T16:38:07.475Z,100037.64
2019-02-08T16:41:13.421Z,100037.03
2019-02-08T16:44:19.390Z,100034.78
2019-02-08T16:47:25.177Z,100041.27
2019-02-08T16:50:31.972Z,100042.86
2019-02-08T16:53:37.793Z,100044.14
2019-02-08T16:56:43.556Z,100041.78
2019-02-08T16:59:49.333Z,100049.09
2019-02-08T17:02:55.981Z,100046.26
2019-02-08T17:06:01.810Z,100051.36
2019-02-08T17:09:12.678Z,100053.61
2019-02-08T17:12:18.559Z,100054.28
2019-02-08T17:15:25.691Z,100060.44
2019-02-08T17:18:31.445Z,100060.68
2019-02-08T17:21:37.241Z,100060.45
2019-02-08T17:24:43.096Z,100063.52
2019-02-08T17:27:55.160Z,100053.23
2019-02-08T17:30:56.784Z,100064.58
2019-02-08T17:34:02.573Z,100055.84
2019-02-08T17:37:08.506Z,100059.52
2019-02-08T17:40:17.159Z,100058.44
2019-02-08T17:43:23.081Z,100064.94
2019-02-08T17:46:28.848Z,100058.44
2019-02-08T17:49:34.614Z,100068.38
2019-02-08T17:52:40.587Z,100073.94
2019-02-08T17:55:46.525Z,100073.23
2019-02-08T17:58:52.265Z,100069.77
2019-02-08T18:01:58.162Z,100064.66
2019-02-08T18:05:04.479Z,100073.18
2019-02-08T18:08:11.581Z,100074.59
2019-02-08T18:11:17.449Z,100075.42
2019-02-08T18:14:23.351Z,100083.80
2019-02-08T18:17:29.151Z,100085.59
2019-02-08T18:20:37.225Z,100088.17
2019-02-08T18:23:43.076Z,100087.38
2019-02-08T18:26:48.888Z,100090.06
2019-02-08T18:29:54.659Z,100092.58
2019-02-08T18:33:00.428Z,100094.86
2019-02-08T18:36:06.551Z,100094.15
2019-02-08T18:39:12.549Z,100096.98
2019-02-08T18:42:18.706Z,100092.58
2019-02-08T18:45:26.312Z,100098.52
2019-02-08T18:48:32.128Z,100104.20
2019-02-08T18:51:38.030Z,100102.53
2019-02-08T18:54:43.824Z,100103.39
2019-02-08T18:57:49.873Z,100106.44
2019-02-08T19:00:55.834Z,100114.48
2019-02-08T19:04:01.617Z,100118.59
2019-02-08T19:07:07.603Z,100111.29
2019-02-08T19:10:15.955Z,100113.17
2019-02-08T19:13:21.749Z,100121.71
2019-02-08T19:16:27.739Z,100127.00
2019-02-08T19:19:33.504Z,100126.41
2019-02-08T19:22:39.598Z,100125.72
2019-02-08T19:25:45.998Z,100129.73
2019-02-08T19:28:51.791Z,100131.05
2019-02-08T19:31:57.790Z,100130.34
2019-02-08T19:35:03.663Z,100138.73
2019-02-08T19:38:09.836Z,100138.83
2019-02-08T19:41:15.628Z,100136.26
2019-02-08T19:44:21.532Z,100145.60
2019-02-08T19:47:27.447Z,100146.03
2019-02-08T19:50:35.644Z,100148.66
2019-02-08T19:53:43.743Z,100145.80
2019-02-08T19:56:49.613Z,100144.03
2019-02-08T19:59:55.407Z,100139.08
2019-02-08T20:03:01.553Z,100146.55
2019-02-08T20:06:08.929Z,100148.84
2019-02-08T20:09:19.241Z,100154.47
2019-02-08T20:12:25.147Z,100147.70
2019-02-08T20:15:31.534Z,100151.02
2019-02-08T20:18:37.374Z,100151.54
2019-02-08T20:21:43.197Z,100152.30
2019-02-08T20:24:48.938Z,100158.23
2019-02-08T20:27:54.820Z,100154.60
2019-02-08T20:31:00.819Z,100165.74
2019-02-08T20:34:06.727Z,100162.45
2019-02-08T20:37:12.616Z,100167.14
2019-02-08T20:40:21.355Z,100163.70
2019-02-08T20:43:28.269Z,100162.87
2019-02-08T20:46:34.103Z,100168.25
2019-02-08T20:49:39.955Z,100168.77
2019-02-08T20:52:47.794Z,100167.69
2019-02-08T20:55:54.039Z,100164.48
2019-02-08T20:58:59.931Z,100167.22
2019-02-08T21:02:05.856Z,100173.63
2019-02-08T21:05:11.943Z,100175.07
2019-02-08T21:08:19.283Z,100177.30
2019-02-08T21:11:25.220Z,100167.03
2019-02-08T21:14:31.129Z,100171.42
2019-02-08T21:17:36.988Z,100167.50
2019-02-08T21:20:44.585Z,100170.48
2019-02-08T21:23:50.343Z,100172.61
2019-02-08T21:26:56.207Z,100168.78
2019-02-08T21:30:01.983Z,100168.98
2019-02-08T21:33:09.787Z,100166.00
2019-02-08T21:36:15.644Z,100172.32
2019-02-08T21:39:21.717Z,100172.66
2019-02-08T21:42:27.522Z,100169.23
2019-02-08T21:45:34.743Z,100167.25
2019-02-08T21:48:40.610Z,100164.81
2019-02-08T21:51:46.788Z,100166.42
2019-02-08T21:54:52.558Z,100165.95
2019-02-08T21:57:58.547Z,100174.18
2019-02-08T22:01:05.480Z,100170.03
2019-02-08T22:04:12.643Z,100170.16
2019-02-08T22:07:20.087Z,100170.79
2019-02-08T22:10:26.042Z,100168.79
2019-02-08T22:13:32.450Z,100167.58
2019-02-08T22:16:38.439Z,100172.00
2019-02-08T22:19:44.216Z,100171.12
2019-02-08T22:22:51.665Z,100173.38
2019-02-08T22:25:57.545Z,100174.30
2019-02-08T22:29:03.322Z,100176.06
2019-02-08T22:32:09.195Z,100186.36
2019-02-08T22:35:15.869Z,100188.36
2019-02-08T22:38:21.760Z,100185.18
2019-02-08T22:41:27.514Z,100185.50
2019-02-08T22:44:33.338Z,100175.94
2019-02-08T22:47:39.134Z,100179.48
2019-02-08T22:50:45.193Z,100177.61
2019-02-08T22:53:51.068Z,100177.40
2019-02-08T22:56:56.941Z,100173.55
2019-02-08T23:00:02.895Z,100167.82
2019-02-08T23:03:12.516Z,100172.48
2019-02-08T23:06:18.397Z,100172.16
2019-02-08T23:09:25.165Z,100175.66
2019-02-08T23:12:31.131Z,100169.34
2019-02-08T23:15:37.593Z,100165.00
2019-02-08T23:18:43.681Z,100171.11
2019-02-08T23:21:49.645Z,100165.00
2019-02-08T23:24:55.544Z,100168.70
2019-02-08T23:28:01.331Z,100165.83
2019-02-08T23:31:07.705Z,100164.77
2019-02-08T23:34:13.495Z,100168.11
2019-02-08T23:37:25.841Z,100165.06
2019-02-08T23:40:26.819Z,100167.72
2019-02-08T23:43:33.404Z,100171.27
2019-02-08T23:46:39.373Z,100171.04
2019-02-08T23:49:45.147Z,100174.01
2019-02-08T23:52:51.143Z,100173.19
2019-02-08T23:55:57.221Z,100169.63
2019-02-08T23:59:03.011Z,100172.78
